Eastport Municipal Airport (EPM)
Eastport, ME
Field Elevation: 45
Lat: 44°54.60N  Long: 67°00.76W
CTAF/Unicom Freq: 122.8000
   
     For Weather-by-Phone, call 207-853-0682
Weather Advisories
2017-12-14   14:44 Z
Altimeter 29.53" Hg
Wind 280° @ 13 KT
Gusts 19 KT
Visibility 10 SM
Temperature -7° C (19° F)
Dewpoint -16° C (3° F)
Relative Humidity 50%
Density Altitude --
Condensation Altitude 4,500 feet
Wind Chill: -15° C (5° F)
Wind and Runways
Indicated Runway = 33
Headwind = 8 kt
Crosswind = 10 kt
History
 
 
 
More Info
NOAA Forecast
 
 
About Us
Belfort Instrument
 
 
FAA Disclaimer: The data displayed is for advisory purposes only and is not to be used for flight planning or operations. For official data, please call 207-853-0682 to hear the current automated AWOS voice message.
  METAR EPM 141444Z AUTO 28013G19KT 10 SM M07/M16 A2953